Time;durP1;ratioP1;P1;durP2;ratioP2;P2;SDS_P1;SDS_P2;PMS_P1;PMS_P2;Temp;Humidity;BMP_temperature;BMP_pressure;BME280_temperature;BME280_humidity;BME280_pressure;Samples;Min_cycle;Max_cycle;Signal;HPM_P1;HPM_P2
2022/07/07 00:01:12;;;;;;;2.03;0.80;;;22.20;77.60;;;;;;5047615;28;20170;-60
2022/07/07 00:03:38;;;;;;;0.68;0.68;;;22.20;77.00;;;;;;5052352;28;20044;-60
2022/07/07 00:06:03;;;;;;;0.85;0.85;;;22.20;77.00;;;;;;5046684;28;20498;-60
2022/07/07 00:08:29;;;;;;;0.90;0.80;;;22.20;77.10;;;;;;5031548;28;20046;-60
2022/07/07 00:10:56;;;;;;;0.60;0.60;;;22.20;77.10;;;;;;5032977;28;20048;-60
2022/07/07 00:13:22;;;;;;;0.75;0.60;;;22.20;77.10;;;;;;5032565;28;20075;-60
2022/07/07 00:15:48;;;;;;;0.45;0.45;;;22.20;77.10;;;;;;5032734;28;20046;-60
2022/07/07 00:18:15;;;;;;;0.75;0.70;;;22.20;77.20;;;;;;5050561;28;20808;-61
2022/07/07 00:20:41;;;;;;;1.05;0.77;;;22.20;77.20;;;;;;5047887;28;20603;-61
2022/07/07 00:23:06;;;;;;;0.75;0.50;;;22.20;77.20;;;;;;5048692;28;20056;-61
2022/07/07 00:25:32;;;;;;;;;;;22.20;77.20;;;;;;5042844;28;20053;-61
2022/07/07 00:27:58;;;;;;;0.90;0.80;;;22.20;76.80;;;;;;5032534;28;19924;-60
2022/07/07 00:30:23;;;;;;;1.67;0.70;;;22.20;77.20;;;;;;5030674;28;20115;-60
2022/07/07 00:32:49;;;;;;;1.13;0.70;;;22.10;77.10;;;;;;5043263;28;20049;-60
2022/07/07 00:35:15;;;;;;;1.23;0.93;;;22.20;77.20;;;;;;5051267;28;20107;-60
2022/07/07 00:37:40;;;;;;;0.77;0.70;;;22.20;77.20;;;;;;5050920;28;20045;-60
2022/07/07 00:40:07;;;;;;;0.63;0.63;;;22.20;77.20;;;;;;5052264;28;20414;-60
2022/07/07 00:42:33;;;;;;;0.68;0.55;;;22.20;77.30;;;;;;5038503;28;20052;-60
2022/07/07 00:44:58;;;;;;;0.77;0.75;;;22.10;77.30;;;;;;5037809;28;20045;-59
2022/07/07 00:47:24;;;;;;;0.68;0.68;;;22.10;77.30;;;;;;5038924;28;20056;-58
2022/07/07 00:49:52;;;;;;;0.82;0.60;;;22.20;77.40;;;;;;5050240;28;20045;-61
2022/07/07 00:52:18;;;;;;;1.13;0.73;;;22.20;77.40;;;;;;5030421;28;20064;-60
2022/07/07 00:54:55;;;;;;;1.00;0.90;;;22.20;78.00;;;;;;5032799;28;20117;-60
2022/07/07 00:57:23;;;;;;;0.88;0.50;;;22.10;77.30;;;;;;5032726;28;20099;-60
2022/07/07 00:59:48;;;;;;;0.95;0.57;;;22.10;77.40;;;;;;5043300;28;20080;-60
2022/07/07 01:02:15;;;;;;;0.60;0.60;;;22.20;77.40;;;;;;5036564;28;20585;-60
2022/07/07 01:04:42;;;;;;;1.08;0.75;;;22.10;77.40;;;;;;5042095;28;20051;-60
2022/07/07 01:07:08;;;;;;;1.45;0.68;;;22.20;77.50;;;;;;5042383;28;20045;-60
2022/07/07 01:09:35;;;;;;;1.02;0.80;;;22.10;77.40;;;;;;5037494;28;20042;-61
2022/07/07 01:12:00;;;;;;;1.20;0.60;;;22.10;77.50;;;;;;5035084;28;20045;-61
2022/07/07 01:14:26;;;;;;;0.80;0.68;;;22.10;77.50;;;;;;5049870;28;20483;-58
2022/07/07 01:16:53;;;;;;;0.95;0.70;;;22.10;77.50;;;;;;5040046;28;20053;-61
2022/07/07 01:19:20;;;;;;;0.70;0.63;;;22.10;77.50;;;;;;5031640;28;20061;-60
2022/07/07 01:21:54;;;;;;;1.05;0.90;;;22.10;77.50;;;;;;5029347;28;20537;-60
2022/07/07 01:24:26;;;;;;;1.65;0.60;;;22.10;77.60;;;;;;5045911;28;20102;-61
2022/07/07 01:27:05;;;;;;;0.80;0.70;;;22.10;77.60;;;;;;5034469;28;20068;-60
2022/07/07 01:29:39;;;;;;;0.45;0.45;;;22.10;77.60;;;;;;5031023;28;20077;-61
2022/07/07 01:32:07;;;;;;;1.90;0.90;;;22.10;77.60;;;;;;5036856;28;20044;-61
2022/07/07 01:34:37;;;;;;;0.80;0.80;;;22.10;77.60;;;;;;5048865;28;20056;-60
2022/07/07 01:37:07;;;;;;;1.35;1.00;;;22.10;77.70;;;;;;5048425;28;20049;-61
2022/07/07 01:39:33;;;;;;;1.95;0.98;;;22.10;77.70;;;;;;5035952;28;20102;-60
2022/07/07 01:41:59;;;;;;;0.60;0.60;;;22.10;77.70;;;;;;5051389;28;20439;-61
2022/07/07 01:44:25;;;;;;;1.58;0.80;;;22.10;77.80;;;;;;5049458;28;20048;-59
2022/07/07 01:46:51;;;;;;;0.80;0.70;;;22.10;77.80;;;;;;5032711;28;20219;-61
2022/07/07 01:49:16;;;;;;;0.52;0.52;;;22.10;77.80;;;;;;5031082;28;20518;-61
2022/07/07 01:51:42;;;;;;;;;;;22.10;77.80;;;;;;5029749;28;20048;-61
2022/07/07 01:54:08;;;;;;;0.80;0.80;;;22.10;77.90;;;;;;5033727;28;19925;-61
2022/07/07 01:56:34;;;;;;;0.60;0.60;;;22.10;77.70;;;;;;5049412;28;20475;-60
2022/07/07 01:59:00;;;;;;;1.33;0.75;;;22.10;77.80;;;;;;5042381;28;20565;-61
2022/07/07 02:01:25;;;;;;;0.63;0.57;;;22.10;77.80;;;;;;5030794;28;20060;-61
2022/07/07 02:03:51;;;;;;;0.50;0.50;;;22.10;77.80;;;;;;5030253;28;20049;-61
2022/07/07 02:06:17;;;;;;;0.75;0.75;;;22.10;77.80;;;;;;5029536;28;20132;-60
2022/07/07 02:08:42;;;;;;;0.93;0.80;;;22.10;77.80;;;;;;5048026;28;20494;-61
2022/07/07 02:11:14;;;;;;;0.98;0.65;;;22.10;77.90;;;;;;5041133;28;20065;-61
2022/07/07 02:13:40;;;;;;;1.00;0.80;;;22.10;77.90;;;;;;5038651;28;20041;-60
2022/07/07 02:16:05;;;;;;;1.30;0.90;;;22.10;78.00;;;;;;5049376;28;20052;-61
2022/07/07 02:18:36;;;;;;;0.98;0.60;;;22.10;78.00;;;;;;5049680;28;20045;-61
2022/07/07 02:21:04;;;;;;;0.95;0.60;;;22.10;78.00;;;;;;5037892;28;20053;-61
2022/07/07 02:23:30;;;;;;;0.60;0.60;;;22.10;78.00;;;;;;5047505;28;20560;-61
2022/07/07 02:25:56;;;;;;;0.60;0.60;;;22.10;78.00;;;;;;5045193;28;20044;-60
2022/07/07 02:28:23;;;;;;;0.70;0.70;;;22.10;78.10;;;;;;5034926;28;20540;-61
2022/07/07 02:30:52;;;;;;;0.68;0.68;;;22.10;78.10;;;;;;5038742;28;20061;-60
2022/07/07 02:33:18;;;;;;;0.88;0.70;;;22.10;78.10;;;;;;5038011;28;20046;-60
2022/07/07 02:35:45;;;;;;;0.60;0.60;;;22.10;78.10;;;;;;5034988;28;20121;-60
2022/07/07 02:38:11;;;;;;;1.10;0.73;;;22.10;78.10;;;;;;5035918;28;20058;-60
2022/07/07 02:40:36;;;;;;;0.43;0.43;;;22.10;78.20;;;;;;5032149;28;20049;-58
2022/07/07 02:43:02;;;;;;;0.60;0.60;;;22.10;78.20;;;;;;5030060;28;20053;-60
2022/07/07 02:45:28;;;;;;;0.80;0.55;;;22.10;78.20;;;;;;5041689;28;20045;-60
2022/07/07 02:47:54;;;;;;;1.15;0.88;;;22.10;78.20;;;;;;5035053;28;20048;-60
2022/07/07 02:50:20;;;;;;;1.15;0.70;;;22.10;78.20;;;;;;5046582;28;20048;-60
2022/07/07 02:52:45;;;;;;;0.70;0.70;;;22.10;78.30;;;;;;5048661;28;20479;-60
2022/07/07 02:55:11;;;;;;;1.35;0.70;;;22.10;78.30;;;;;;5034984;28;20041;-60
2022/07/07 02:57:37;;;;;;;0.50;0.50;;;22.10;78.30;;;;;;5028797;28;20091;-58
2022/07/07 03:00:07;;;;;;;0.60;0.60;;;22.10;78.30;;;;;;5029583;28;20093;-60
2022/07/07 03:02:33;;;;;;;0.80;0.80;;;22.10;78.30;;;;;;5028859;28;20113;-59
2022/07/07 03:04:59;;;;;;;0.60;0.60;;;22.10;78.40;;;;;;5046309;28;20099;-58
2022/07/07 03:07:25;;;;;;;0.80;0.70;;;22.10;78.40;;;;;;5047064;28;20422;-60
2022/07/07 03:09:51;;;;;;;1.08;0.63;;;22.10;78.40;;;;;;5046768;28;20455;-60
2022/07/07 03:12:16;;;;;;;0.50;0.50;;;22.10;78.40;;;;;;5032861;28;20379;-60
2022/07/07 03:14:42;;;;;;;0.75;0.52;;;22.10;78.40;;;;;;5040185;28;20060;-60
2022/07/07 03:17:08;;;;;;;0.50;0.50;;;22.10;78.40;;;;;;5038682;28;20049;-60
2022/07/07 03:19:36;;;;;;;0.70;0.70;;;22.10;78.40;;;;;;5034033;28;20482;-60
2022/07/07 03:22:03;;;;;;;0.50;0.50;;;22.10;78.50;;;;;;5046801;28;20056;-61
2022/07/07 03:24:29;;;;;;;0.40;0.40;;;22.10;78.50;;;;;;5042583;28;20085;-60
2022/07/07 03:26:55;;;;;;;0.55;0.50;;;22.10;78.50;;;;;;5029293;28;20060;-60
2022/07/07 03:29:21;;;;;;;0.73;0.70;;;22.10;78.50;;;;;;5029681;28;20500;-61
2022/07/07 03:31:47;;;;;;;0.75;0.70;;;22.10;78.50;;;;;;5028818;28;20089;-61
2022/07/07 03:34:12;;;;;;;1.30;0.70;;;22.00;78.40;;;;;;5034557;28;20070;-60
2022/07/07 03:36:38;;;;;;;0.75;0.75;;;22.10;78.50;;;;;;5040860;28;20048;-58
2022/07/07 03:39:05;;;;;;;0.52;0.50;;;22.10;78.60;;;;;;5028857;28;20478;-60
2022/07/07 03:41:31;;;;;;;0.70;0.70;;;22.00;78.50;;;;;;5028737;28;20459;-60
2022/07/07 03:43:56;;;;;;;0.50;0.50;;;22.10;78.60;;;;;;5027862;28;20084;-60
2022/07/07 03:46:22;;;;;;;1.63;0.60;;;22.10;78.60;;;;;;5040533;28;20053;-61
2022/07/07 03:48:47;;;;;;;0.60;0.60;;;22.10;78.60;;;;;;5048564;28;20052;-60
2022/07/07 03:51:13;;;;;;;0.60;0.60;;;22.10;78.60;;;;;;5048369;28;20071;-60
2022/07/07 03:53:39;;;;;;;1.17;0.68;;;22.00;78.60;;;;;;5048242;28;20522;-61
2022/07/07 03:56:05;;;;;;;0.70;0.70;;;22.10;78.70;;;;;;5048397;28;20044;-61
2022/07/07 03:58:30;;;;;;;0.80;0.73;;;22.10;78.70;;;;;;5039545;28;20491;-60
2022/07/07 04:00:57;;;;;;;;;;;22.00;78.60;;;;;;5034331;28;20049;-60
2022/07/07 04:03:23;;;;;;;0.68;0.57;;;22.00;78.80;;;;;;5051266;28;20374;-60
2022/07/07 04:05:49;;;;;;;0.50;0.40;;;22.00;78.60;;;;;;5046985;28;20165;-60
2022/07/07 04:08:14;;;;;;;0.35;0.35;;;22.00;78.60;;;;;;5032106;28;20053;-60
2022/07/07 04:10:40;;;;;;;;;;;22.00;78.60;;;;;;5032198;28;20041;-60
2022/07/07 04:13:05;;;;;;;0.50;0.50;;;22.00;78.80;;;;;;5032631;28;20385;-60
2022/07/07 04:15:31;;;;;;;0.90;0.60;;;22.00;78.60;;;;;;5048307;28;20083;-60
2022/07/07 04:17:57;;;;;;;0.60;0.55;;;22.00;78.60;;;;;;5049907;28;20059;-60
2022/07/07 04:20:24;;;;;;;0.70;0.70;;;22.00;78.70;;;;;;5035719;28;20040;-60
2022/07/07 04:22:49;;;;;;;0.60;0.50;;;22.00;78.70;;;;;;5051253;28;20098;-60
2022/07/07 04:25:15;;;;;;;0.73;0.60;;;22.00;78.80;;;;;;5051557;28;20049;-60
2022/07/07 04:27:40;;;;;;;0.60;0.60;;;22.00;78.70;;;;;;5031108;28;20049;-60
2022/07/07 04:30:07;;;;;;;0.80;0.68;;;22.00;78.80;;;;;;5032056;28;20049;-61
2022/07/07 04:32:32;;;;;;;0.57;0.40;;;22.00;78.80;;;;;;5034162;28;20466;-60
2022/07/07 04:34:58;;;;;;;0.47;0.40;;;22.00;78.80;;;;;;5049467;28;20048;-59
2022/07/07 04:37:24;;;;;;;1.02;0.50;;;22.00;78.80;;;;;;5037645;28;20049;-60
2022/07/07 04:39:49;;;;;;;0.47;0.47;;;22.00;78.90;;;;;;5042477;28;20049;-60
2022/07/07 04:42:15;;;;;;;0.50;0.50;;;22.00;78.90;;;;;;5039896;28;20045;-61
2022/07/07 04:44:41;;;;;;;2.42;0.52;;;22.00;78.90;;;;;;5032326;28;20570;-60
2022/07/07 04:47:07;;;;;;;0.85;0.60;;;22.00;78.90;;;;;;5046461;28;20826;-60
2022/07/07 04:49:32;;;;;;;0.50;0.50;;;22.00;78.90;;;;;;5052064;28;20057;-60
2022/07/07 04:51:58;;;;;;;0.68;0.50;;;22.00;79.00;;;;;;5049897;28;20053;-60
2022/07/07 04:54:23;;;;;;;0.60;0.60;;;22.00;79.00;;;;;;5035643;28;20049;-60
2022/07/07 04:56:49;;;;;;;1.50;0.40;;;22.00;79.10;;;;;;5036689;28;20395;-60
2022/07/07 04:59:15;;;;;;;0.40;0.40;;;22.00;79.10;;;;;;5048737;28;20064;-60
2022/07/07 05:01:41;;;;;;;1.50;0.55;;;22.00;79.10;;;;;;5032241;28;20056;-60
2022/07/07 05:04:06;;;;;;;0.85;0.40;;;22.00;79.10;;;;;;5033854;28;20261;-60
2022/07/07 05:06:32;;;;;;;;;;;22.00;79.10;;;;;;5037023;28;20127;-60
2022/07/07 05:08:58;;;;;;;0.65;0.65;;;22.00;79.30;;;;;;5049669;28;19968;-61
2022/07/07 05:11:23;;;;;;;0.90;0.52;;;22.00;79.10;;;;;;5032761;28;20474;-61
2022/07/07 05:13:49;;;;;;;0.40;0.40;;;22.00;79.10;;;;;;5031480;28;20049;-59
2022/07/07 05:16:15;;;;;;;1.02;0.70;;;22.00;79.20;;;;;;5036783;28;20049;-60
2022/07/07 05:18:41;;;;;;;0.50;0.40;;;22.00;79.20;;;;;;5049196;28;20045;-60
2022/07/07 05:21:06;;;;;;;;;;;22.00;79.20;;;;;;5033450;28;20076;-60
2022/07/07 05:23:32;;;;;;;0.65;0.60;;;22.00;79.30;;;;;;5034952;28;20378;-60
2022/07/07 05:25:58;;;;;;;0.50;0.50;;;22.00;79.10;;;;;;5050957;28;20395;-61
2022/07/07 05:28:23;;;;;;;0.93;0.60;;;22.00;79.10;;;;;;5050792;28;20129;-61
2022/07/07 05:30:49;;;;;;;0.65;0.57;;;22.00;79.20;;;;;;5050236;28;20477;-58
2022/07/07 05:33:15;;;;;;;1.30;0.63;;;22.00;79.20;;;;;;5030886;28;20509;-60
2022/07/07 05:35:41;;;;;;;0.98;0.50;;;22.00;79.20;;;;;;5039008;28;20049;-61
2022/07/07 05:38:06;;;;;;;0.70;0.70;;;22.00;79.20;;;;;;5045202;28;20049;-61
2022/07/07 05:40:32;;;;;;;0.35;0.35;;;22.00;79.30;;;;;;5033618;28;20403;-61
2022/07/07 05:42:58;;;;;;;1.27;0.50;;;22.00;79.30;;;;;;5030534;28;20132;-61
2022/07/07 05:45:23;;;;;;;0.50;0.45;;;22.00;79.30;;;;;;5030711;28;20046;-60
2022/07/07 05:47:49;;;;;;;1.02;0.50;;;22.00;79.30;;;;;;5030607;28;20619;-60
2022/07/07 05:50:15;;;;;;;0.73;0.73;;;22.00;79.30;;;;;;5044961;28;20049;-61
2022/07/07 05:52:40;;;;;;;2.28;0.95;;;22.00;79.30;;;;;;5040094;28;20034;-61
2022/07/07 05:55:09;;;;;;;0.50;0.50;;;22.00;79.30;;;;;;5031697;28;20080;-60
2022/07/07 05:57:35;;;;;;;0.40;0.40;;;22.00;79.30;;;;;;5050675;28;20510;-61
2022/07/07 06:00:01;;;;;;;1.33;0.60;;;22.00;79.30;;;;;;5037697;28;20092;-59
2022/07/07 06:02:27;;;;;;;0.40;0.40;;;22.00;79.30;;;;;;5048787;28;20056;-61
2022/07/07 06:04:52;;;;;;;1.40;0.57;;;22.00;79.40;;;;;;5050238;28;20093;-58
2022/07/07 06:07:18;;;;;;;0.50;0.50;;;22.00;79.30;;;;;;5045275;28;20077;-60
2022/07/07 06:09:44;;;;;;;3.47;0.68;;;22.00;79.30;;;;;;5050701;28;20048;-60
2022/07/07 06:12:10;;;;;;;2.42;0.55;;;22.00;79.30;;;;;;5040898;28;20558;-59
2022/07/07 06:14:35;;;;;;;1.45;0.55;;;22.00;79.30;;;;;;5039067;28;20395;-59
2022/07/07 06:17:01;;;;;;;1.55;0.65;;;22.00;79.40;;;;;;5049448;28;20056;-60
2022/07/07 06:19:27;;;;;;;0.38;0.30;;;22.00;79.40;;;;;;5049931;28;20053;-60
2022/07/07 06:21:55;;;;;;;1.17;0.63;;;22.00;79.50;;;;;;5029915;28;20052;-60
2022/07/07 06:24:21;;;;;;;1.55;0.75;;;21.90;79.40;;;;;;5030085;28;20498;-60
2022/07/07 06:26:46;;;;;;;1.63;0.30;;;22.00;80.20;;;;;;5030518;28;20118;-60
2022/07/07 06:29:12;;;;;;;2.00;0.80;;;22.00;79.50;;;;;;5030091;28;20045;-60
2022/07/07 06:31:38;;;;;;;0.77;0.50;;;22.00;79.50;;;;;;5030055;28;20470;-60
2022/07/07 06:34:03;;;;;;;0.40;0.40;;;22.00;79.50;;;;;;5031991;28;20037;-60
2022/07/07 06:36:29;;;;;;;1.25;0.60;;;22.00;79.50;;;;;;5041061;28;20045;-60
2022/07/07 06:38:55;;;;;;;2.80;0.95;;;22.00;79.50;;;;;;5039556;28;20056;-59
2022/07/07 06:41:32;;;;;;;1.60;0.73;;;22.00;79.40;;;;;;5043583;28;20116;-61
2022/07/07 06:43:58;;;;;;;3.45;0.50;;;22.00;79.50;;;;;;5041270;28;20056;-58
2022/07/07 06:46:23;;;;;;;0.68;0.68;;;22.00;79.50;;;;;;5039311;28;20059;-60
2022/07/07 06:48:49;;;;;;;0.70;0.57;;;22.00;79.40;;;;;;5040376;28;20056;-60
2022/07/07 06:51:15;;;;;;;0.73;0.57;;;22.00;79.40;;;;;;5032358;28;20819;-59
2022/07/07 06:53:40;;;;;;;1.65;0.55;;;22.00;79.50;;;;;;5038850;28;20041;-60
2022/07/07 06:56:06;;;;;;;2.53;0.70;;;22.00;79.40;;;;;;5030765;28;20103;-60
2022/07/07 06:58:32;;;;;;;1.35;0.50;;;22.00;79.40;;;;;;5039839;28;20045;-59
2022/07/07 07:00:58;;;;;;;;;;;22.00;79.50;;;;;;5030568;28;20053;-59
2022/07/07 07:03:24;;;;;;;3.28;0.50;;;22.00;79.60;;;;;;5033446;28;19921;-61
2022/07/07 07:05:49;;;;;;;3.75;0.90;;;22.00;79.50;;;;;;5036328;28;20048;-60
2022/07/07 07:08:15;;;;;;;2.72;0.60;;;22.00;79.60;;;;;;5039034;28;20041;-61
2022/07/07 07:10:41;;;;;;;2.78;1.10;;;22.00;79.60;;;;;;5044805;28;20040;-61
2022/07/07 07:13:06;;;;;;;;;;;22.00;79.70;;;;;;5042320;28;20057;-60
2022/07/07 07:15:32;;;;;;;4.50;1.02;;;22.00;79.90;;;;;;5038347;28;19924;-61
2022/07/07 07:17:57;;;;;;;;;;;22.00;79.70;;;;;;5029855;28;20045;-61
2022/07/07 07:20:23;;;;;;;0.75;0.50;;;22.00;79.90;;;;;;5029442;28;20318;-61
2022/07/07 07:22:50;;;;;;;0.70;0.57;;;22.00;79.50;;;;;;5028412;28;20470;-61
2022/07/07 07:25:19;;;;;;;2.42;0.80;;;22.10;79.60;;;;;;5040235;28;20080;-61
2022/07/07 07:27:44;;;;;;;1.38;0.68;;;22.10;79.60;;;;;;5038989;28;20045;-60
2022/07/07 07:30:12;;;;;;;1.00;0.52;;;22.10;79.60;;;;;;5029533;28;20449;-61
2022/07/07 07:32:37;;;;;;;0.50;0.50;;;22.10;79.60;;;;;;5037002;28;20103;-62
2022/07/07 07:35:03;;;;;;;0.95;0.55;;;22.10;79.60;;;;;;5040325;28;20045;-60
2022/07/07 07:37:29;;;;;;;;;;;22.10;79.60;;;;;;5045132;28;20414;-61
2022/07/07 07:39:54;;;;;;;2.15;0.60;;;22.20;79.80;;;;;;5039035;28;19925;-61
2022/07/07 07:42:20;;;;;;;1.02;0.60;;;22.20;79.60;;;;;;5041581;28;20037;-61
2022/07/07 07:47:30;;;;;;;0.65;0.57;;;22.20;79.60;;;;;;5041948;28;20596;-61
2022/07/07 07:49:56;;;;;;;0.30;0.30;;;22.20;79.60;;;;;;5043493;28;20128;-61
2022/07/07 07:52:21;;;;;;;1.38;0.50;;;22.20;79.60;;;;;;5043036;28;20267;-61
2022/07/07 07:54:47;;;;;;;1.23;0.52;;;22.20;79.60;;;;;;5043149;28;20045;-60
2022/07/07 07:57:13;;;;;;;1.35;0.40;;;22.20;79.60;;;;;;5034333;28;20108;-61
2022/07/07 07:59:38;;;;;;;2.00;1.10;;;22.30;79.60;;;;;;5042091;28;20050;-61
2022/07/07 08:02:04;;;;;;;1.20;0.52;;;22.30;79.60;;;;;;5043863;28;20055;-60
2022/07/07 08:04:30;;;;;;;0.45;0.45;;;22.30;79.60;;;;;;5044663;28;20136;-61
2022/07/07 08:06:55;;;;;;;0.80;0.68;;;22.30;79.60;;;;;;5036087;28;20128;-61
2022/07/07 08:09:21;;;;;;;2.00;0.60;;;22.30;79.60;;;;;;5052586;28;20037;-60
2022/07/07 08:11:47;;;;;;;1.48;0.35;;;22.30;79.60;;;;;;5050179;28;20475;-62
2022/07/07 08:14:12;;;;;;;3.58;1.27;;;22.30;79.60;;;;;;5048513;28;20045;-61
2022/07/07 08:16:38;;;;;;;1.25;0.73;;;22.20;79.70;;;;;;5049816;28;20049;-61
2022/07/07 08:19:04;;;;;;;3.63;0.73;;;22.10;79.80;;;;;;5043063;28;20550;-59
2022/07/07 08:21:29;;;;;;;1.48;0.52;;;22.10;80.00;;;;;;5044281;28;20048;-62
2022/07/07 08:23:55;;;;;;;1.20;0.60;;;22.10;80.00;;;;;;5045801;28;20037;-63
2022/07/07 08:26:21;;;;;;;2.08;0.50;;;22.10;80.10;;;;;;5036195;28;20076;-61
2022/07/07 08:28:47;;;;;;;3.13;0.60;;;22.10;80.00;;;;;;5047003;28;20131;-62
2022/07/07 08:31:12;;;;;;;4.57;0.90;;;22.10;80.00;;;;;;5039382;28;20076;-62
2022/07/07 08:33:38;;;;;;;1.00;0.50;;;22.10;80.00;;;;;;5050434;28;20079;-61
2022/07/07 08:36:04;;;;;;;2.92;0.70;;;22.20;80.00;;;;;;5045302;28;20055;-60
2022/07/07 08:38:30;;;;;;;0.93;0.30;;;22.20;80.00;;;;;;5051412;28;20049;-62
2022/07/07 08:40:55;;;;;;;2.85;0.82;;;22.20;79.90;;;;;;5038178;28;20049;-62
2022/07/07 08:43:21;;;;;;;0.30;0.30;;;22.20;79.90;;;;;;5050623;28;20045;-62
2022/07/07 08:45:48;;;;;;;2.70;0.68;;;22.20;79.90;;;;;;5050168;28;20406;-63
2022/07/07 08:48:14;;;;;;;0.52;0.30;;;22.20;79.90;;;;;;5051767;28;20052;-61
2022/07/07 08:50:40;;;;;;;1.45;0.47;;;22.20;79.80;;;;;;5033226;28;20041;-62
2022/07/07 08:53:07;;;;;;;5.05;0.57;;;22.30;79.90;;;;;;5043547;28;20049;-62
2022/07/07 08:55:36;;;;;;;1.38;0.45;;;22.30;79.90;;;;;;5051949;28;20056;-62
2022/07/07 08:58:04;;;;;;;1.63;0.60;;;22.30;79.90;;;;;;5039554;28;20077;-62
2022/07/07 09:00:30;;;;;;;1.65;0.55;;;22.30;79.90;;;;;;5041302;28;20601;-61
2022/07/07 09:02:57;;;;;;;1.55;0.50;;;22.30;80.10;;;;;;5036035;28;20067;-60
2022/07/07 09:05:23;;;;;;;2.92;0.40;;;22.30;80.20;;;;;;5046993;28;20052;-61
2022/07/07 09:07:50;;;;;;;2.33;0.50;;;22.30;80.40;;;;;;5046168;28;20053;-61
2022/07/07 09:10:33;;;;;;;2.13;0.52;;;22.30;80.40;;;;;;5051060;28;20119;-60
2022/07/07 09:13:00;;;;;;;5.10;0.73;;;22.30;80.70;;;;;;5049245;28;20057;-61
2022/07/07 09:15:36;;;;;;;2.03;0.50;;;22.30;80.60;;;;;;5039633;28;20053;-61
2022/07/07 09:18:02;;;;;;;3.15;0.50;;;22.30;80.70;;;;;;5048086;28;20045;-61
2022/07/07 09:20:28;;;;;;;0.90;0.50;;;22.30;80.70;;;;;;5049181;28;20049;-61
2022/07/07 09:22:56;;;;;;;0.50;0.50;;;22.30;80.70;;;;;;5031330;28;20056;-61
2022/07/07 09:25:25;;;;;;;1.27;0.50;;;22.30;80.70;;;;;;5041564;28;20052;-61
2022/07/07 09:27:52;;;;;;;0.95;0.40;;;22.30;80.70;;;;;;5031223;28;20094;-61
2022/07/07 09:30:34;;;;;;;5.05;0.70;;;22.30;80.70;;;;;;5043601;28;20422;-61
2022/07/07 09:33:06;;;;;;;0.65;0.30;;;22.20;80.50;;;;;;5033987;28;20112;-60
2022/07/07 09:38:22;;;;;;;4.90;0.68;;;22.20;80.20;;;;;;5039659;28;20056;-60
2022/07/07 09:41:03;;;;;;;0.98;0.47;;;22.10;80.60;;;;;;5052055;28;20115;-61
2022/07/07 09:43:33;;;;;;;1.30;0.45;;;22.10;80.80;;;;;;5039118;28;20450;-63
2022/07/07 09:46:11;;;;;;;1.75;0.77;;;22.10;80.90;;;;;;5031686;28;20501;-65
2022/07/07 09:48:38;;;;;;;3.42;0.50;;;22.10;81.10;;;;;;5044371;28;20048;-63
2022/07/07 09:51:10;;;;;;;3.13;0.80;;;22.10;81.10;;;;;;5047768;28;20051;-62
2022/07/07 09:53:51;;;;;;;1.30;0.52;;;22.10;81.10;;;;;;5049758;28;20064;-62
2022/07/07 09:56:19;;;;;;;2.88;0.90;;;22.10;81.10;;;;;;5049508;28;20062;-62
2022/07/07 09:58:45;;;;;;;2.05;0.70;;;22.10;81.10;;;;;;5048171;28;20402;-63
2022/07/07 10:01:11;;;;;;;3.47;0.60;;;22.20;81.10;;;;;;5045336;28;20045;-63
2022/07/07 10:03:37;;;;;;;4.43;0.93;;;22.20;81.10;;;;;;5043100;28;20048;-62
2022/07/07 10:06:04;;;;;;;1.25;0.60;;;22.20;81.00;;;;;;5050060;28;20391;-62
2022/07/07 10:08:31;;;;;;;0.57;0.57;;;22.20;81.00;;;;;;5049671;28;20045;-62
2022/07/07 10:10:58;;;;;;;2.17;0.70;;;22.20;81.00;;;;;;5051093;28;20513;-63
2022/07/07 10:13:26;;;;;;;4.40;0.65;;;22.20;80.90;;;;;;5038121;28;20056;-62
2022/07/07 10:15:51;;;;;;;1.45;0.40;;;22.20;80.90;;;;;;5034844;28;20045;-62
2022/07/07 10:18:18;;;;;;;2.17;0.73;;;22.20;80.90;;;;;;5044987;28;20103;-58
2022/07/07 10:20:45;;;;;;;3.38;0.70;;;22.30;80.90;;;;;;5049275;28;20041;-62
2022/07/07 10:23:11;;;;;;;3.72;0.93;;;22.30;80.90;;;;;;5043927;28;20045;-62
2022/07/07 10:25:37;;;;;;;1.67;0.50;;;22.30;80.90;;;;;;5050142;28;20052;-62
2022/07/07 10:28:02;;;;;;;1.33;0.55;;;22.30;80.90;;;;;;5050270;28;20064;-60
2022/07/07 10:30:30;;;;;;;1.10;0.63;;;22.30;80.80;;;;;;5035429;28;20045;-63
2022/07/07 10:32:57;;;;;;;1.60;0.60;;;22.30;80.90;;;;;;5035182;28;20069;-63
2022/07/07 10:35:25;;;;;;;1.90;0.50;;;22.30;80.80;;;;;;5048733;28;20052;-62
2022/07/07 10:37:53;;;;;;;0.73;0.52;;;22.30;80.80;;;;;;5049053;28;20056;-62
2022/07/07 10:40:27;;;;;;;2.67;0.60;;;22.30;80.80;;;;;;5050156;28;20167;-59
2022/07/07 10:42:59;;;;;;;2.42;1.05;;;22.30;80.80;;;;;;5049594;28;20171;-62
2022/07/07 10:45:25;;;;;;;2.25;0.50;;;22.30;80.80;;;;;;5037142;28;20474;-63
2022/07/07 10:47:51;;;;;;;0.70;0.60;;;22.30;80.70;;;;;;5049890;28;20120;-62
2022/07/07 10:50:34;;;;;;;0.47;0.40;;;22.30;80.80;;;;;;5049047;28;20161;-62
2022/07/07 10:53:00;;;;;;;1.30;0.60;;;22.30;80.80;;;;;;5048165;28;20512;-62
2022/07/07 10:55:58;;;;;;;2.58;0.45;;;22.40;80.80;;;;;;5049657;28;20060;-61
2022/07/07 10:58:51;;;;;;;0.75;0.63;;;22.30;80.70;;;;;;5048931;28;20052;-62
2022/07/07 11:01:17;;;;;;;1.70;0.63;;;22.30;80.80;;;;;;5049946;28;20044;-62
2022/07/07 11:03:42;;;;;;;1.75;0.50;;;22.30;80.70;;;;;;5047667;28;20056;-62
2022/07/07 11:06:08;;;;;;;0.40;0.40;;;22.40;80.80;;;;;;5047619;28;20168;-62
2022/07/07 11:08:38;;;;;;;1.77;0.57;;;22.30;80.80;;;;;;5048553;28;20193;-62
2022/07/07 11:11:05;;;;;;;1.45;0.52;;;22.30;80.80;;;;;;5036577;28;20049;-62
2022/07/07 11:13:33;;;;;;;1.95;0.40;;;22.30;80.70;;;;;;5049290;28;20103;-62
2022/07/07 11:16:10;;;;;;;4.05;0.85;;;22.30;80.80;;;;;;5049853;28;20049;-63
2022/07/07 11:18:36;;;;;;;0.65;0.47;;;22.40;80.90;;;;;;5036920;28;20049;-62
2022/07/07 11:21:04;;;;;;;0.85;0.40;;;22.40;80.90;;;;;;5048384;28;20649;-62
2022/07/07 11:23:47;;;;;;;0.75;0.50;;;22.30;80.80;;;;;;5048368;28;20048;-62
2022/07/07 11:26:14;;;;;;;1.75;0.30;;;22.40;80.80;;;;;;5050178;28;20081;-63
2022/07/07 11:28:40;;;;;;;0.55;0.50;;;22.40;80.90;;;;;;5049117;28;20048;-63
2022/07/07 11:31:08;;;;;;;1.48;0.55;;;22.30;80.70;;;;;;5048559;28;20580;-63
2022/07/07 11:33:35;;;;;;;1.98;0.57;;;22.40;80.80;;;;;;5047280;28;20037;-62
2022/07/07 11:36:17;;;;;;;1.55;0.55;;;22.30;80.80;;;;;;5038416;28;20045;-63
2022/07/07 11:38:44;;;;;;;0.57;0.40;;;22.40;81.50;;;;;;5038473;28;20052;-63
2022/07/07 11:41:10;;;;;;;1.45;0.50;;;22.40;80.80;;;;;;5050007;28;20041;-62
2022/07/07 11:43:36;;;;;;;1.38;0.40;;;22.40;80.80;;;;;;5048792;28;20099;-62
2022/07/07 11:46:01;;;;;;;0.52;0.40;;;22.40;80.80;;;;;;5049436;28;20052;-63
2022/07/07 11:48:38;;;;;;;2.83;0.60;;;22.40;80.80;;;;;;5048891;28;20047;-59
2022/07/07 11:51:04;;;;;;;0.63;0.40;;;22.40;80.70;;;;;;5048513;28;20128;-62
2022/07/07 11:53:30;;;;;;;0.73;0.32;;;22.40;80.80;;;;;;5048176;28;20048;-62
2022/07/07 11:55:56;;;;;;;2.22;0.80;;;22.40;80.80;;;;;;5049691;28;20489;-62
2022/07/07 11:58:22;;;;;;;0.45;0.40;;;22.40;80.80;;;;;;5033491;28;20148;-62
2022/07/07 12:00:53;;;;;;;1.27;0.50;;;22.40;80.80;;;;;;5033790;28;20855;-62
2022/07/07 12:03:18;;;;;;;0.55;0.30;;;22.40;80.70;;;;;;5035639;28;20599;-62
2022/07/07 12:05:47;;;;;;;2.03;0.88;;;22.40;80.70;;;;;;5033497;28;20036;-62
2022/07/07 12:08:14;;;;;;;0.50;0.40;;;22.40;80.70;;;;;;5046249;28;20084;-63
2022/07/07 12:10:48;;;;;;;1.33;0.60;;;22.40;80.70;;;;;;5049083;28;20049;-63
2022/07/07 12:13:14;;;;;;;1.25;0.52;;;22.40;80.70;;;;;;5049432;28;20132;-62
2022/07/07 12:15:48;;;;;;;2.38;0.80;;;22.40;80.70;;;;;;5042354;28;20049;-59
2022/07/07 12:18:24;;;;;;;8.60;1.10;;;22.40;80.10;;;;;;5045636;28;20037;-61
2022/07/07 12:21:02;;;;;;;7.25;1.23;;;22.30;79.20;;;;;;5046091;28;20054;-62
2022/07/07 12:23:27;;;;;;;2.80;1.10;;;22.20;79.00;;;;;;5047169;28;20056;-62
2022/07/07 12:26:05;;;;;;;5.35;0.98;;;22.10;79.00;;;;;;5052545;28;20052;-62
2022/07/07 12:28:37;;;;;;;4.38;1.60;;;22.00;78.60;;;;;;5052550;28;20064;-59
2022/07/07 12:31:04;;;;;;;4.28;1.08;;;22.00;78.70;;;;;;5052691;28;20147;-62
2022/07/07 12:33:38;;;;;;;2.95;1.00;;;22.00;78.60;;;;;;5052838;28;20119;-62
2022/07/07 12:36:11;;;;;;;4.18;0.95;;;22.00;78.50;;;;;;5037570;28;20029;-62
2022/07/07 12:38:41;;;;;;;6.57;1.25;;;22.00;78.40;;;;;;5051256;28;20305;-62
2022/07/07 12:41:08;;;;;;;4.60;0.90;;;22.00;78.40;;;;;;5050932;28;20118;-61
2022/07/07 12:43:36;;;;;;;3.65;1.25;;;22.00;78.30;;;;;;5040909;28;20049;-58
2022/07/07 12:46:10;;;;;;;6.18;1.10;;;22.00;78.30;;;;;;5051644;28;20083;-62
2022/07/07 12:48:43;;;;;;;2.30;1.05;;;22.00;78.20;;;;;;5051448;28;20213;-62
2022/07/07 12:51:09;;;;;;;2.80;1.10;;;22.00;78.20;;;;;;5050818;28;20452;-62
2022/07/07 12:53:36;;;;;;;2.83;0.93;;;22.00;78.10;;;;;;5051095;28;20239;-61
2022/07/07 12:56:06;;;;;;;7.22;1.08;;;22.00;78.20;;;;;;5052321;28;20124;-62